sensor_id;sensor_type;location;lat;lon;timestamp;P1;durP1;ratioP1;P2;durP2;ratioP2
35917;SDS011;22011;59.912;30.300;2023-05-02T00:01:47;2.95;;;1.17;;
35917;SDS011;22011;59.912;30.300;2023-05-02T00:04:15;3.22;;;1.10;;
35917;SDS011;22011;59.912;30.300;2023-05-02T00:06:43;1.60;;;0.90;;
35917;SDS011;22011;59.912;30.300;2023-05-02T00:09:11;2.27;;;0.77;;
35917;SDS011;22011;59.912;30.300;2023-05-02T00:11:40;3.00;;;0.98;;
35917;SDS011;22011;59.912;30.300;2023-05-02T00:14:07;3.47;;;1.60;;
35917;SDS011;22011;59.912;30.300;2023-05-02T00:16:35;1.75;;;1.13;;
35917;SDS011;22011;59.912;30.300;2023-05-02T00:19:02;3.00;;;1.40;;
35917;SDS011;22011;59.912;30.300;2023-05-02T00:21:30;3.67;;;1.17;;
35917;SDS011;22011;59.912;30.300;2023-05-02T00:23:59;3.42;;;1.70;;
35917;SDS011;22011;59.912;30.300;2023-05-02T00:26:26;3.08;;;1.35;;
35917;SDS011;22011;59.912;30.300;2023-05-02T00:28:53;2.85;;;0.93;;
35917;SDS011;22011;59.912;30.300;2023-05-02T00:31:21;3.65;;;1.13;;
35917;SDS011;22011;59.912;30.300;2023-05-02T00:33:49;3.88;;;1.10;;
35917;SDS011;22011;59.912;30.300;2023-05-02T00:36:16;1.60;;;1.20;;
35917;SDS011;22011;59.912;30.300;2023-05-02T00:38:45;1.40;;;0.93;;
35917;SDS011;22011;59.912;30.300;2023-05-02T00:41:14;2.33;;;1.50;;
35917;SDS011;22011;59.912;30.300;2023-05-02T00:43:43;1.45;;;1.35;;
35917;SDS011;22011;59.912;30.300;2023-05-02T00:46:10;2.13;;;1.00;;
35917;SDS011;22011;59.912;30.300;2023-05-02T00:48:38;1.65;;;1.08;;
35917;SDS011;22011;59.912;30.300;2023-05-02T00:51:06;1.40;;;1.00;;
35917;SDS011;22011;59.912;30.300;2023-05-02T00:53:36;2.80;;;1.40;;
35917;SDS011;22011;59.912;30.300;2023-05-02T00:56:05;1.80;;;1.30;;
35917;SDS011;22011;59.912;30.300;2023-05-02T00:58:34;3.10;;;1.38;;
35917;SDS011;22011;59.912;30.300;2023-05-02T01:01:07;2.45;;;1.40;;
35917;SDS011;22011;59.912;30.300;2023-05-02T01:03:45;4.38;;;1.42;;
35917;SDS011;22011;59.912;30.300;2023-05-02T01:06:25;1.73;;;1.30;;
35917;SDS011;22011;59.912;30.300;2023-05-02T01:09:02;2.67;;;1.52;;
35917;SDS011;22011;59.912;30.300;2023-05-02T01:11:42;1.92;;;1.30;;
35917;SDS011;22011;59.912;30.300;2023-05-02T01:14:15;1.98;;;1.08;;
35917;SDS011;22011;59.912;30.300;2023-05-02T01:16:45;3.28;;;1.38;;
35917;SDS011;22011;59.912;30.300;2023-05-02T01:19:18;5.55;;;1.67;;
35917;SDS011;22011;59.912;30.300;2023-05-02T01:21:51;2.88;;;1.67;;
35917;SDS011;22011;59.912;30.300;2023-05-02T01:24:22;2.77;;;1.60;;
35917;SDS011;22011;59.912;30.300;2023-05-02T01:26:57;2.95;;;1.80;;
35917;SDS011;22011;59.912;30.300;2023-05-02T01:29:32;3.47;;;1.30;;
35917;SDS011;22011;59.912;30.300;2023-05-02T01:32:00;2.08;;;1.45;;
35917;SDS011;22011;59.912;30.300;2023-05-02T01:34:29;3.75;;;1.58;;
35917;SDS011;22011;59.912;30.300;2023-05-02T01:36:58;2.85;;;1.75;;
35917;SDS011;22011;59.912;30.300;2023-05-02T01:39:29;4.45;;;1.77;;
35917;SDS011;22011;59.912;30.300;2023-05-02T01:41:58;3.78;;;1.85;;
35917;SDS011;22011;59.912;30.300;2023-05-02T01:44:29;3.15;;;1.65;;
35917;SDS011;22011;59.912;30.300;2023-05-02T01:47:00;6.10;;;2.00;;
35917;SDS011;22011;59.912;30.300;2023-05-02T01:49:30;3.17;;;2.00;;
35917;SDS011;22011;59.912;30.300;2023-05-02T01:52:01;2.88;;;1.80;;
35917;SDS011;22011;59.912;30.300;2023-05-02T01:54:31;2.60;;;1.63;;
35917;SDS011;22011;59.912;30.300;2023-05-02T01:57:03;3.85;;;2.20;;
35917;SDS011;22011;59.912;30.300;2023-05-02T01:59:34;3.58;;;2.13;;
35917;SDS011;22011;59.912;30.300;2023-05-02T02:02:06;4.10;;;1.90;;
35917;SDS011;22011;59.912;30.300;2023-05-02T02:04:36;3.25;;;2.13;;
35917;SDS011;22011;59.912;30.300;2023-05-02T02:07:05;3.80;;;2.40;;
35917;SDS011;22011;59.912;30.300;2023-05-02T02:09:34;4.80;;;2.78;;
35917;SDS011;22011;59.912;30.300;2023-05-02T02:12:04;5.32;;;2.33;;
35917;SDS011;22011;59.912;30.300;2023-05-02T02:14:35;7.75;;;2.47;;
35917;SDS011;22011;59.912;30.300;2023-05-02T02:17:09;8.20;;;3.60;;
35917;SDS011;22011;59.912;30.300;2023-05-02T02:19:39;7.07;;;3.50;;
35917;SDS011;22011;59.912;30.300;2023-05-02T02:22:08;4.20;;;2.85;;
35917;SDS011;22011;59.912;30.300;2023-05-02T02:24:39;5.30;;;3.45;;
35917;SDS011;22011;59.912;30.300;2023-05-02T02:27:07;4.10;;;2.58;;
35917;SDS011;22011;59.912;30.300;2023-05-02T02:29:36;3.95;;;2.60;;
35917;SDS011;22011;59.912;30.300;2023-05-02T02:32:04;4.03;;;2.47;;
35917;SDS011;22011;59.912;30.300;2023-05-02T02:34:32;8.63;;;3.20;;
35917;SDS011;22011;59.912;30.300;2023-05-02T02:37:00;5.60;;;2.65;;
35917;SDS011;22011;59.912;30.300;2023-05-02T02:39:34;6.10;;;3.17;;
35917;SDS011;22011;59.912;30.300;2023-05-02T02:42:10;4.78;;;2.58;;
35917;SDS011;22011;59.912;30.300;2023-05-02T02:44:50;5.28;;;2.72;;
35917;SDS011;22011;59.912;30.300;2023-05-02T02:47:23;4.75;;;2.83;;
35917;SDS011;22011;59.912;30.300;2023-05-02T02:50:01;6.28;;;2.70;;
35917;SDS011;22011;59.912;30.300;2023-05-02T02:52:39;3.85;;;2.83;;
35917;SDS011;22011;59.912;30.300;2023-05-02T02:55:18;6.85;;;2.58;;
35917;SDS011;22011;59.912;30.300;2023-05-02T02:57:53;4.18;;;2.80;;
35917;SDS011;22011;59.912;30.300;2023-05-02T03:00:26;6.20;;;3.10;;
35917;SDS011;22011;59.912;30.300;2023-05-02T03:02:54;6.15;;;3.08;;
35917;SDS011;22011;59.912;30.300;2023-05-02T03:05:23;5.20;;;3.15;;
35917;SDS011;22011;59.912;30.300;2023-05-02T03:07:51;12.13;;;5.00;;
35917;SDS011;22011;59.912;30.300;2023-05-02T03:10:21;15.98;;;7.25;;
35917;SDS011;22011;59.912;30.300;2023-05-02T03:12:49;12.30;;;6.43;;
35917;SDS011;22011;59.912;30.300;2023-05-02T03:15:30;10.38;;;5.00;;
35917;SDS011;22011;59.912;30.300;2023-05-02T03:18:14;6.43;;;3.10;;
35917;SDS011;22011;59.912;30.300;2023-05-02T03:20:41;5.82;;;3.35;;
35917;SDS011;22011;59.912;30.300;2023-05-02T03:23:09;4.85;;;3.13;;
35917;SDS011;22011;59.912;30.300;2023-05-02T03:25:37;8.73;;;3.00;;
35917;SDS011;22011;59.912;30.300;2023-05-02T03:28:09;5.88;;;3.15;;
35917;SDS011;22011;59.912;30.300;2023-05-02T03:30:39;5.75;;;3.53;;
35917;SDS011;22011;59.912;30.300;2023-05-02T03:33:08;7.53;;;3.70;;
35917;SDS011;22011;59.912;30.300;2023-05-02T03:35:37;4.75;;;3.08;;
35917;SDS011;22011;59.912;30.300;2023-05-02T03:38:04;6.55;;;3.15;;
35917;SDS011;22011;59.912;30.300;2023-05-02T03:40:32;7.00;;;4.47;;
35917;SDS011;22011;59.912;30.300;2023-05-02T03:43:00;10.02;;;4.80;;
35917;SDS011;22011;59.912;30.300;2023-05-02T03:45:31;6.25;;;3.30;;
35917;SDS011;22011;59.912;30.300;2023-05-02T03:48:00;5.97;;;3.53;;
35917;SDS011;22011;59.912;30.300;2023-05-02T03:50:29;7.95;;;3.78;;
35917;SDS011;22011;59.912;30.300;2023-05-02T03:52:57;6.57;;;3.25;;
35917;SDS011;22011;59.912;30.300;2023-05-02T03:55:37;6.97;;;3.55;;
35917;SDS011;22011;59.912;30.300;2023-05-02T03:58:07;5.13;;;3.38;;
35917;SDS011;22011;59.912;30.300;2023-05-02T04:00:37;6.73;;;3.23;;
35917;SDS011;22011;59.912;30.300;2023-05-02T04:03:08;5.78;;;3.10;;
35917;SDS011;22011;59.912;30.300;2023-05-02T04:05:39;4.80;;;3.00;;
35917;SDS011;22011;59.912;30.300;2023-05-02T04:08:08;6.55;;;3.47;;
35917;SDS011;22011;59.912;30.300;2023-05-02T04:10:36;5.60;;;3.70;;
35917;SDS011;22011;59.912;30.300;2023-05-02T04:13:07;5.40;;;3.60;;
35917;SDS011;22011;59.912;30.300;2023-05-02T04:15:38;4.45;;;3.88;;
35917;SDS011;22011;59.912;30.300;2023-05-02T04:18:08;7.20;;;4.40;;
35917;SDS011;22011;59.912;30.300;2023-05-02T04:20:36;6.93;;;5.07;;
35917;SDS011;22011;59.912;30.300;2023-05-02T04:23:04;11.50;;;7.57;;
35917;SDS011;22011;59.912;30.300;2023-05-02T04:25:31;6.80;;;4.82;;
35917;SDS011;22011;59.912;30.300;2023-05-02T04:28:02;5.68;;;3.70;;
35917;SDS011;22011;59.912;30.300;2023-05-02T04:30:29;6.80;;;3.13;;
35917;SDS011;22011;59.912;30.300;2023-05-02T04:33:06;5.47;;;3.60;;
35917;SDS011;22011;59.912;30.300;2023-05-02T04:35:38;5.75;;;3.50;;
35917;SDS011;22011;59.912;30.300;2023-05-02T04:38:06;5.05;;;3.40;;
35917;SDS011;22011;59.912;30.300;2023-05-02T04:40:34;5.38;;;4.05;;
35917;SDS011;22011;59.912;30.300;2023-05-02T04:45:43;5.63;;;3.40;;
35917;SDS011;22011;59.912;30.300;2023-05-02T04:48:19;5.88;;;3.95;;
35917;SDS011;22011;59.912;30.300;2023-05-02T04:50:47;7.40;;;3.20;;
35917;SDS011;22011;59.912;30.300;2023-05-02T04:53:15;4.85;;;3.13;;
35917;SDS011;22011;59.912;30.300;2023-05-02T04:55:43;8.40;;;3.08;;
35917;SDS011;22011;59.912;30.300;2023-05-02T04:58:10;6.60;;;3.20;;
35917;SDS011;22011;59.912;30.300;2023-05-02T05:00:38;7.65;;;3.13;;
35917;SDS011;22011;59.912;30.300;2023-05-02T05:03:06;5.47;;;2.88;;
35917;SDS011;22011;59.912;30.300;2023-05-02T05:05:35;5.78;;;3.00;;
35917;SDS011;22011;59.912;30.300;2023-05-02T05:08:05;6.47;;;2.80;;
35917;SDS011;22011;59.912;30.300;2023-05-02T05:13:02;5.13;;;3.40;;
35917;SDS011;22011;59.912;30.300;2023-05-02T05:15:31;4.18;;;2.90;;
35917;SDS011;22011;59.912;30.300;2023-05-02T05:18:00;7.75;;;2.97;;
35917;SDS011;22011;59.912;30.300;2023-05-02T05:20:28;5.57;;;3.10;;
35917;SDS011;22011;59.912;30.300;2023-05-02T05:23:00;12.43;;;4.60;;
35917;SDS011;22011;59.912;30.300;2023-05-02T05:25:28;5.50;;;2.63;;
35917;SDS011;22011;59.912;30.300;2023-05-02T05:27:58;7.90;;;2.92;;
35917;SDS011;22011;59.912;30.300;2023-05-02T05:30:27;5.88;;;2.90;;
35917;SDS011;22011;59.912;30.300;2023-05-02T05:32:56;10.50;;;3.27;;
35917;SDS011;22011;59.912;30.300;2023-05-02T05:35:24;15.35;;;4.05;;
35917;SDS011;22011;59.912;30.300;2023-05-02T05:37:52;10.10;;;2.80;;
35917;SDS011;22011;59.912;30.300;2023-05-02T05:40:21;7.00;;;3.28;;
35917;SDS011;22011;59.912;30.300;2023-05-02T05:42:54;10.65;;;3.55;;
35917;SDS011;22011;59.912;30.300;2023-05-02T05:45:26;14.45;;;6.65;;
35917;SDS011;22011;59.912;30.300;2023-05-02T05:47:54;7.25;;;3.55;;
35917;SDS011;22011;59.912;30.300;2023-05-02T05:50:23;11.52;;;3.72;;
35917;SDS011;22011;59.912;30.300;2023-05-02T05:52:52;11.48;;;3.67;;
35917;SDS011;22011;59.912;30.300;2023-05-02T05:55:22;7.47;;;3.58;;
35917;SDS011;22011;59.912;30.300;2023-05-02T05:57:49;21.65;;;3.83;;
35917;SDS011;22011;59.912;30.300;2023-05-02T06:00:18;16.67;;;4.20;;
35917;SDS011;22011;59.912;30.300;2023-05-02T06:02:49;18.10;;;4.80;;
35917;SDS011;22011;59.912;30.300;2023-05-02T06:05:34;13.77;;;5.15;;
35917;SDS011;22011;59.912;30.300;2023-05-02T06:08:02;22.90;;;4.00;;
35917;SDS011;22011;59.912;30.300;2023-05-02T06:10:31;22.13;;;4.82;;
35917;SDS011;22011;59.912;30.300;2023-05-02T06:12:58;7.97;;;2.80;;
35917;SDS011;22011;59.912;30.300;2023-05-02T06:15:32;9.27;;;3.58;;
35917;SDS011;22011;59.912;30.300;2023-05-02T06:18:00;17.48;;;3.60;;
35917;SDS011;22011;59.912;30.300;2023-05-02T06:20:27;21.60;;;5.15;;
35917;SDS011;22011;59.912;30.300;2023-05-02T06:22:55;14.75;;;4.28;;
35917;SDS011;22011;59.912;30.300;2023-05-02T06:25:22;19.63;;;4.10;;
35917;SDS011;22011;59.912;30.300;2023-05-02T06:27:51;15.00;;;3.45;;
35917;SDS011;22011;59.912;30.300;2023-05-02T06:30:19;7.53;;;2.50;;
35917;SDS011;22011;59.912;30.300;2023-05-02T06:32:46;8.95;;;3.65;;
35917;SDS011;22011;59.912;30.300;2023-05-02T06:35:14;24.13;;;4.25;;
35917;SDS011;22011;59.912;30.300;2023-05-02T06:37:41;14.23;;;4.68;;
35917;SDS011;22011;59.912;30.300;2023-05-02T06:40:09;28.55;;;5.85;;
35917;SDS011;22011;59.912;30.300;2023-05-02T06:42:38;15.80;;;3.90;;
35917;SDS011;22011;59.912;30.300;2023-05-02T06:45:07;11.50;;;3.88;;
35917;SDS011;22011;59.912;30.300;2023-05-02T06:47:35;35.08;;;5.90;;
35917;SDS011;22011;59.912;30.300;2023-05-02T06:50:02;28.42;;;5.72;;
35917;SDS011;22011;59.912;30.300;2023-05-02T06:52:30;14.93;;;4.05;;
35917;SDS011;22011;59.912;30.300;2023-05-02T06:54:57;36.78;;;6.25;;
35917;SDS011;22011;59.912;30.300;2023-05-02T06:57:25;18.10;;;4.57;;
35917;SDS011;22011;59.912;30.300;2023-05-02T06:59:52;16.00;;;5.10;;
35917;SDS011;22011;59.912;30.300;2023-05-02T07:02:21;16.83;;;4.57;;
35917;SDS011;22011;59.912;30.300;2023-05-02T07:04:48;43.30;;;6.15;;
35917;SDS011;22011;59.912;30.300;2023-05-02T07:07:16;44.50;;;7.05;;
35917;SDS011;22011;59.912;30.300;2023-05-02T07:09:45;56.33;;;7.30;;
35917;SDS011;22011;59.912;30.300;2023-05-02T07:12:12;25.30;;;4.82;;
35917;SDS011;22011;59.912;30.300;2023-05-02T07:14:40;11.88;;;3.70;;
35917;SDS011;22011;59.912;30.300;2023-05-02T07:17:07;10.75;;;3.90;;
35917;SDS011;22011;59.912;30.300;2023-05-02T07:19:36;14.02;;;3.85;;
35917;SDS011;22011;59.912;30.300;2023-05-02T07:22:04;23.42;;;4.72;;
35917;SDS011;22011;59.912;30.300;2023-05-02T07:24:31;27.85;;;5.97;;
35917;SDS011;22011;59.912;30.300;2023-05-02T07:26:59;26.85;;;6.20;;
35917;SDS011;22011;59.912;30.300;2023-05-02T07:29:28;32.90;;;5.00;;
35917;SDS011;22011;59.912;30.300;2023-05-02T07:31:55;27.33;;;4.53;;
35917;SDS011;22011;59.912;30.300;2023-05-02T07:34:23;21.27;;;4.47;;
35917;SDS011;22011;59.912;30.300;2023-05-02T07:36:54;21.70;;;4.70;;
35917;SDS011;22011;59.912;30.300;2023-05-02T07:39:21;18.30;;;4.63;;
35917;SDS011;22011;59.912;30.300;2023-05-02T07:41:50;16.77;;;3.90;;
35917;SDS011;22011;59.912;30.300;2023-05-02T07:44:18;19.75;;;4.25;;
35917;SDS011;22011;59.912;30.300;2023-05-02T07:46:45;24.38;;;4.95;;
35917;SDS011;22011;59.912;30.300;2023-05-02T07:49:13;26.20;;;4.30;;
35917;SDS011;22011;59.912;30.300;2023-05-02T07:51:40;26.33;;;5.70;;
35917;SDS011;22011;59.912;30.300;2023-05-02T07:54:18;31.60;;;5.75;;
35917;SDS011;22011;59.912;30.300;2023-05-02T07:56:47;31.65;;;4.88;;
35917;SDS011;22011;59.912;30.300;2023-05-02T07:59:14;37.50;;;4.78;;
35917;SDS011;22011;59.912;30.300;2023-05-02T08:01:42;28.38;;;4.10;;
35917;SDS011;22011;59.912;30.300;2023-05-02T08:04:10;24.05;;;5.22;;
35917;SDS011;22011;59.912;30.300;2023-05-02T08:06:37;30.67;;;5.72;;
35917;SDS011;22011;59.912;30.300;2023-05-02T08:09:05;49.95;;;6.68;;
35917;SDS011;22011;59.912;30.300;2023-05-02T08:11:35;36.95;;;5.85;;
35917;SDS011;22011;59.912;30.300;2023-05-02T08:14:02;21.25;;;3.75;;
35917;SDS011;22011;59.912;30.300;2023-05-02T08:16:30;39.40;;;5.90;;
35917;SDS011;22011;59.912;30.300;2023-05-02T08:18:57;32.85;;;5.32;;
35917;SDS011;22011;59.912;30.300;2023-05-02T08:21:25;40.20;;;5.45;;
35917;SDS011;22011;59.912;30.300;2023-05-02T08:23:56;27.70;;;4.28;;
35917;SDS011;22011;59.912;30.300;2023-05-02T08:26:24;34.65;;;4.80;;
35917;SDS011;22011;59.912;30.300;2023-05-02T08:28:53;7.57;;;3.20;;
35917;SDS011;22011;59.912;30.300;2023-05-02T08:31:21;22.83;;;4.37;;
35917;SDS011;22011;59.912;30.300;2023-05-02T08:33:48;36.33;;;5.25;;
35917;SDS011;22011;59.912;30.300;2023-05-02T08:36:16;47.70;;;5.32;;
35917;SDS011;22011;59.912;30.300;2023-05-02T08:38:45;31.33;;;5.43;;
35917;SDS011;22011;59.912;30.300;2023-05-02T08:41:13;58.45;;;8.90;;
35917;SDS011;22011;59.912;30.300;2023-05-02T08:43:41;50.47;;;6.50;;
35917;SDS011;22011;59.912;30.300;2023-05-02T08:46:11;40.20;;;5.13;;
35917;SDS011;22011;59.912;30.300;2023-05-02T08:51:08;25.60;;;4.15;;
35917;SDS011;22011;59.912;30.300;2023-05-02T08:53:37;23.58;;;3.97;;
35917;SDS011;22011;59.912;30.300;2023-05-02T08:56:05;32.55;;;4.00;;
35917;SDS011;22011;59.912;30.300;2023-05-02T08:58:33;31.90;;;4.68;;
35917;SDS011;22011;59.912;30.300;2023-05-02T09:01:02;16.27;;;3.40;;
35917;SDS011;22011;59.912;30.300;2023-05-02T09:03:36;15.40;;;3.53;;
35917;SDS011;22011;59.912;30.300;2023-05-02T09:06:05;20.83;;;4.43;;
35917;SDS011;22011;59.912;30.300;2023-05-02T09:08:34;24.48;;;3.25;;
35917;SDS011;22011;59.912;30.300;2023-05-02T09:11:03;37.67;;;4.30;;
35917;SDS011;22011;59.912;30.300;2023-05-02T09:13:31;30.15;;;5.65;;
35917;SDS011;22011;59.912;30.300;2023-05-02T09:16:02;38.45;;;4.68;;
35917;SDS011;22011;59.912;30.300;2023-05-02T09:18:30;39.60;;;5.13;;
35917;SDS011;22011;59.912;30.300;2023-05-02T09:21:00;26.05;;;3.92;;
35917;SDS011;22011;59.912;30.300;2023-05-02T09:23:37;41.70;;;5.18;;
35917;SDS011;22011;59.912;30.300;2023-05-02T09:26:12;23.23;;;3.60;;
35917;SDS011;22011;59.912;30.300;2023-05-02T09:28:42;29.45;;;3.90;;
35917;SDS011;22011;59.912;30.300;2023-05-02T09:31:11;59.23;;;5.20;;
35917;SDS011;22011;59.912;30.300;2023-05-02T09:33:40;31.85;;;4.65;;
35917;SDS011;22011;59.912;30.300;2023-05-02T09:36:10;69.88;;;7.28;;
35917;SDS011;22011;59.912;30.300;2023-05-02T09:38:39;26.13;;;3.42;;
35917;SDS011;22011;59.912;30.300;2023-05-02T09:41:07;21.35;;;3.55;;
35917;SDS011;22011;59.912;30.300;2023-05-02T09:43:34;23.98;;;4.28;;
35917;SDS011;22011;59.912;30.300;2023-05-02T09:46:02;25.85;;;5.10;;
35917;SDS011;22011;59.912;30.300;2023-05-02T09:48:32;25.73;;;3.63;;
35917;SDS011;22011;59.912;30.300;2023-05-02T09:51:18;23.33;;;2.80;;
35917;SDS011;22011;59.912;30.300;2023-05-02T09:53:46;11.93;;;2.25;;
35917;SDS011;22011;59.912;30.300;2023-05-02T09:56:14;18.65;;;2.97;;
35917;SDS011;22011;59.912;30.300;2023-05-02T09:58:42;11.73;;;2.45;;
35917;SDS011;22011;59.912;30.300;2023-05-02T10:01:13;9.93;;;1.83;;
35917;SDS011;22011;59.912;30.300;2023-05-02T10:03:41;10.68;;;2.53;;
35917;SDS011;22011;59.912;30.300;2023-05-02T10:06:12;19.60;;;2.58;;
35917;SDS011;22011;59.912;30.300;2023-05-02T10:08:43;15.02;;;2.20;;
35917;SDS011;22011;59.912;30.300;2023-05-02T10:11:12;9.20;;;2.58;;
35917;SDS011;22011;59.912;30.300;2023-05-02T10:13:39;10.02;;;2.80;;
35917;SDS011;22011;59.912;30.300;2023-05-02T10:16:11;8.63;;;3.10;;
35917;SDS011;22011;59.912;30.300;2023-05-02T10:18:40;13.73;;;2.17;;
35917;SDS011;22011;59.912;30.300;2023-05-02T10:21:19;17.20;;;2.88;;
35917;SDS011;22011;59.912;30.300;2023-05-02T10:23:53;14.52;;;2.60;;
35917;SDS011;22011;59.912;30.300;2023-05-02T10:26:21;12.70;;;2.97;;
35917;SDS011;22011;59.912;30.300;2023-05-02T10:28:49;13.38;;;3.05;;
35917;SDS011;22011;59.912;30.300;2023-05-02T10:31:17;21.67;;;3.80;;
35917;SDS011;22011;59.912;30.300;2023-05-02T10:33:45;9.82;;;2.40;;
35917;SDS011;22011;59.912;30.300;2023-05-02T10:36:19;14.60;;;2.20;;
35917;SDS011;22011;59.912;30.300;2023-05-02T10:38:47;16.60;;;2.47;;
35917;SDS011;22011;59.912;30.300;2023-05-02T10:41:18;8.38;;;1.75;;
35917;SDS011;22011;59.912;30.300;2023-05-02T10:43:48;5.45;;;2.00;;
35917;SDS011;22011;59.912;30.300;2023-05-02T10:46:29;14.32;;;2.50;;
35917;SDS011;22011;59.912;30.300;2023-05-02T10:49:01;6.65;;;2.63;;
35917;SDS011;22011;59.912;30.300;2023-05-02T10:51:30;11.35;;;2.47;;
35917;SDS011;22011;59.912;30.300;2023-05-02T10:57:04;12.77;;;2.22;;
35917;SDS011;22011;59.912;30.300;2023-05-02T10:59:33;8.50;;;2.00;;
35917;SDS011;22011;59.912;30.300;2023-05-02T11:02:02;6.65;;;1.95;;
35917;SDS011;22011;59.912;30.300;2023-05-02T11:07:26;5.95;;;2.30;;
35917;SDS011;22011;59.912;30.300;2023-05-02T11:10:02;24.30;;;4.03;;
35917;SDS011;22011;59.912;30.300;2023-05-02T11:12:57;12.18;;;2.88;;
35917;SDS011;22011;59.912;30.300;2023-05-02T11:18:21;23.00;;;3.80;;
35917;SDS011;22011;59.912;30.300;2023-05-02T11:20:49;11.95;;;3.05;;
35917;SDS011;22011;59.912;30.300;2023-05-02T11:23:20;36.10;;;5.05;;
35917;SDS011;22011;59.912;30.300;2023-05-02T11:25:53;15.23;;;3.33;;
35917;SDS011;22011;59.912;30.300;2023-05-02T11:34:38;21.50;;;3.15;;
35917;SDS011;22011;59.912;30.300;2023-05-02T11:37:10;24.83;;;3.92;;
35917;SDS011;22011;59.912;30.300;2023-05-02T11:39:39;19.85;;;4.57;;
35917;SDS011;22011;59.912;30.300;2023-05-02T11:42:06;25.77;;;4.30;;
35917;SDS011;22011;59.912;30.300;2023-05-02T11:47:24;40.47;;;5.32;;
35917;SDS011;22011;59.912;30.300;2023-05-02T11:52:21;44.05;;;4.43;;
35917;SDS011;22011;59.912;30.300;2023-05-02T11:54:52;25.80;;;3.70;;
35917;SDS011;22011;59.912;30.300;2023-05-02T11:57:20;39.17;;;3.70;;
35917;SDS011;22011;59.912;30.300;2023-05-02T11:59:48;24.27;;;3.50;;
35917;SDS011;22011;59.912;30.300;2023-05-02T12:02:18;24.90;;;4.25;;
35917;SDS011;22011;59.912;30.300;2023-05-02T12:04:45;35.80;;;3.97;;
35917;SDS011;22011;59.912;30.300;2023-05-02T12:07:13;25.83;;;4.20;;
35917;SDS011;22011;59.912;30.300;2023-05-02T12:09:49;22.85;;;3.70;;
35917;SDS011;22011;59.912;30.300;2023-05-02T12:12:20;11.98;;;2.90;;
35917;SDS011;22011;59.912;30.300;2023-05-02T12:14:48;18.20;;;3.25;;
35917;SDS011;22011;59.912;30.300;2023-05-02T12:17:15;30.25;;;5.95;;
35917;SDS011;22011;59.912;30.300;2023-05-02T12:19:44;29.77;;;4.28;;
35917;SDS011;22011;59.912;30.300;2023-05-02T12:22:13;32.15;;;4.35;;
35917;SDS011;22011;59.912;30.300;2023-05-02T12:24:41;29.08;;;4.20;;
35917;SDS011;22011;59.912;30.300;2023-05-02T12:27:09;22.80;;;3.40;;
35917;SDS011;22011;59.912;30.300;2023-05-02T12:29:38;23.20;;;2.90;;
35917;SDS011;22011;59.912;30.300;2023-05-02T12:32:07;35.65;;;4.40;;
35917;SDS011;22011;59.912;30.300;2023-05-02T12:34:36;45.75;;;4.80;;
35917;SDS011;22011;59.912;30.300;2023-05-02T12:39:35;35.25;;;3.67;;
35917;SDS011;22011;59.912;30.300;2023-05-02T12:42:10;15.63;;;4.05;;
35917;SDS011;22011;59.912;30.300;2023-05-02T12:44:38;31.77;;;4.40;;
35917;SDS011;22011;59.912;30.300;2023-05-02T12:47:07;20.70;;;3.83;;
35917;SDS011;22011;59.912;30.300;2023-05-02T12:49:48;13.60;;;3.33;;
35917;SDS011;22011;59.912;30.300;2023-05-02T12:52:16;35.38;;;4.13;;
35917;SDS011;22011;59.912;30.300;2023-05-02T12:54:44;38.85;;;4.40;;
35917;SDS011;22011;59.912;30.300;2023-05-02T12:57:21;34.08;;;4.03;;
35917;SDS011;22011;59.912;30.300;2023-05-02T12:59:50;32.15;;;3.80;;
35917;SDS011;22011;59.912;30.300;2023-05-02T13:02:19;17.27;;;2.72;;
35917;SDS011;22011;59.912;30.300;2023-05-02T13:04:48;9.77;;;2.50;;
35917;SDS011;22011;59.912;30.300;2023-05-02T13:07:16;19.08;;;3.15;;
35917;SDS011;22011;59.912;30.300;2023-05-02T13:09:43;21.42;;;3.45;;
35917;SDS011;22011;59.912;30.300;2023-05-02T13:12:11;18.65;;;3.15;;
35917;SDS011;22011;59.912;30.300;2023-05-02T13:14:38;22.17;;;3.85;;
35917;SDS011;22011;59.912;30.300;2023-05-02T13:17:05;23.02;;;3.53;;
35917;SDS011;22011;59.912;30.300;2023-05-02T13:19:34;27.90;;;4.65;;
35917;SDS011;22011;59.912;30.300;2023-05-02T13:22:02;24.38;;;4.40;;
35917;SDS011;22011;59.912;30.300;2023-05-02T13:24:30;13.73;;;2.80;;
35917;SDS011;22011;59.912;30.300;2023-05-02T13:26:57;44.28;;;4.78;;
35917;SDS011;22011;59.912;30.300;2023-05-02T13:29:24;19.33;;;3.30;;
35917;SDS011;22011;59.912;30.300;2023-05-02T13:31:52;18.27;;;3.13;;
35917;SDS011;22011;59.912;30.300;2023-05-02T13:34:19;29.30;;;3.92;;
35917;SDS011;22011;59.912;30.300;2023-05-02T13:36:47;20.85;;;3.85;;
35917;SDS011;22011;59.912;30.300;2023-05-02T13:39:15;21.10;;;3.38;;
35917;SDS011;22011;59.912;30.300;2023-05-02T13:41:43;18.15;;;3.53;;
35917;SDS011;22011;59.912;30.300;2023-05-02T13:44:11;29.17;;;4.40;;
35917;SDS011;22011;59.912;30.300;2023-05-02T13:46:39;30.75;;;4.38;;
35917;SDS011;22011;59.912;30.300;2023-05-02T13:49:07;19.92;;;3.22;;
35917;SDS011;22011;59.912;30.300;2023-05-02T13:51:35;19.48;;;3.47;;
35917;SDS011;22011;59.912;30.300;2023-05-02T13:54:02;15.48;;;3.25;;
35917;SDS011;22011;59.912;30.300;2023-05-02T13:56:31;13.57;;;3.38;;
35917;SDS011;22011;59.912;30.300;2023-05-02T13:58:58;23.52;;;3.67;;
35917;SDS011;22011;59.912;30.300;2023-05-02T14:01:26;26.73;;;3.38;;
35917;SDS011;22011;59.912;30.300;2023-05-02T14:03:53;34.00;;;4.53;;
35917;SDS011;22011;59.912;30.300;2023-05-02T14:06:20;40.95;;;3.78;;
35917;SDS011;22011;59.912;30.300;2023-05-02T14:08:48;37.00;;;3.70;;
35917;SDS011;22011;59.912;30.300;2023-05-02T14:11:17;19.92;;;3.00;;
35917;SDS011;22011;59.912;30.300;2023-05-02T14:13:45;31.85;;;4.43;;
35917;SDS011;22011;59.912;30.300;2023-05-02T14:16:13;13.32;;;2.80;;
35917;SDS011;22011;59.912;30.300;2023-05-02T14:18:40;18.40;;;3.13;;
35917;SDS011;22011;59.912;30.300;2023-05-02T14:21:08;21.27;;;3.17;;
35917;SDS011;22011;59.912;30.300;2023-05-02T14:23:35;13.93;;;2.78;;
35917;SDS011;22011;59.912;30.300;2023-05-02T14:26:03;17.45;;;2.70;;
35917;SDS011;22011;59.912;30.300;2023-05-02T14:28:30;12.45;;;2.65;;
35917;SDS011;22011;59.912;30.300;2023-05-02T14:30:59;10.95;;;3.17;;
35917;SDS011;22011;59.912;30.300;2023-05-02T14:33:26;22.33;;;2.90;;
35917;SDS011;22011;59.912;30.300;2023-05-02T14:35:54;13.98;;;3.17;;
35917;SDS011;22011;59.912;30.300;2023-05-02T14:38:21;21.90;;;3.03;;
35917;SDS011;22011;59.912;30.300;2023-05-02T14:40:49;20.52;;;2.55;;
35917;SDS011;22011;59.912;30.300;2023-05-02T14:43:16;21.02;;;3.33;;
35917;SDS011;22011;59.912;30.300;2023-05-02T14:45:43;15.63;;;2.92;;
35917;SDS011;22011;59.912;30.300;2023-05-02T14:48:12;13.85;;;2.58;;
35917;SDS011;22011;59.912;30.300;2023-05-02T14:50:41;12.63;;;2.20;;
35917;SDS011;22011;59.912;30.300;2023-05-02T14:53:09;24.40;;;2.90;;
35917;SDS011;22011;59.912;30.300;2023-05-02T14:55:38;14.32;;;3.38;;
35917;SDS011;22011;59.912;30.300;2023-05-02T14:58:05;40.63;;;3.83;;
35917;SDS011;22011;59.912;30.300;2023-05-02T15:00:33;25.83;;;4.20;;
35917;SDS011;22011;59.912;30.300;2023-05-02T15:03:03;21.88;;;3.35;;
35917;SDS011;22011;59.912;30.300;2023-05-02T15:05:32;21.85;;;2.30;;
35917;SDS011;22011;59.912;30.300;2023-05-02T15:07:59;18.53;;;3.23;;
35917;SDS011;22011;59.912;30.300;2023-05-02T15:10:27;22.98;;;2.88;;